sensor_id;sensor_type;location;lat;lon;timestamp;pressure;altitude;pressure_sealevel;temperature;humidity
56082;BME280;41957;52.060;5.138;2023-01-01T00:01:29;100741.41;;;15.86;65.15
56082;BME280;41957;52.060;5.138;2023-01-01T00:03:57;100745.84;;;15.86;64.85
56082;BME280;41957;52.060;5.138;2023-01-01T00:06:23;100741.41;;;15.86;65.17
56082;BME280;41957;52.060;5.138;2023-01-01T00:08:48;100747.69;;;15.83;65.03
56082;BME280;41957;52.060;5.138;2023-01-01T00:11:34;100745.88;;;15.84;64.60
56082;BME280;41957;52.060;5.138;2023-01-01T00:13:59;100752.84;;;15.87;64.39
56082;BME280;41957;52.060;5.138;2023-01-01T00:16:25;100752.00;;;15.86;64.80
56082;BME280;41957;52.060;5.138;2023-01-01T00:18:50;100754.69;;;15.85;64.16
56082;BME280;41957;52.060;5.138;2023-01-01T00:21:15;100763.47;;;15.87;63.84
56082;BME280;41957;52.060;5.138;2023-01-01T00:23:41;100757.22;;;15.88;64.32
56082;BME280;41957;52.060;5.138;2023-01-01T00:26:15;100745.88;;;15.84;64.59
56082;BME280;41957;52.060;5.138;2023-01-01T00:28:41;100734.47;;;15.82;64.31
56082;BME280;41957;52.060;5.138;2023-01-01T00:31:07;100747.69;;;15.83;64.76
56082;BME280;41957;52.060;5.138;2023-01-01T00:33:33;100745.84;;;15.86;64.63
56082;BME280;41957;52.060;5.138;2023-01-01T00:36:13;100744.09;;;15.85;64.32
56082;BME280;41957;52.060;5.138;2023-01-01T00:38:39;100752.03;;;15.85;64.45
56082;BME280;41957;52.060;5.138;2023-01-01T00:41:05;100749.41;;;15.85;64.40
56082;BME280;41957;52.060;5.138;2023-01-01T00:43:31;100751.25;;;15.82;64.20
56082;BME280;41957;52.060;5.138;2023-01-01T00:45:56;100738.00;;;15.82;64.32
56082;BME280;41957;52.060;5.138;2023-01-01T00:48:22;100740.78;;;15.79;63.27
56082;BME280;41957;52.060;5.138;2023-01-01T00:50:49;100736.50;;;15.75;63.46
56082;BME280;41957;52.060;5.138;2023-01-01T00:53:14;100738.25;;;15.76;63.29
56082;BME280;41957;52.060;5.138;2023-01-01T00:55:40;100738.38;;;15.73;62.95
56082;BME280;41957;52.060;5.138;2023-01-01T00:58:06;100733.09;;;15.73;63.71
56082;BME280;41957;52.060;5.138;2023-01-01T01:00:32;100756.84;;;15.75;63.04
56082;BME280;41957;52.060;5.138;2023-01-01T01:02:57;100764.81;;;15.75;63.28
56082;BME280;41957;52.060;5.138;2023-01-01T01:05:22;100753.16;;;15.79;63.46
56082;BME280;41957;52.060;5.138;2023-01-01T01:07:48;100754.94;;;15.78;63.49
56082;BME280;41957;52.060;5.138;2023-01-01T01:10:13;100757.59;;;15.78;63.51
56082;BME280;41957;52.060;5.138;2023-01-01T01:12:39;100747.81;;;15.80;63.45
56082;BME280;41957;52.060;5.138;2023-01-01T01:15:06;100761.91;;;15.81;63.52
56082;BME280;41957;52.060;5.138;2023-01-01T01:17:32;100756.69;;;15.79;63.59
56082;BME280;41957;52.060;5.138;2023-01-01T01:19:58;100769.00;;;15.80;63.84
56082;BME280;41957;52.060;5.138;2023-01-01T01:22:23;100770.72;;;15.81;63.79
56082;BME280;41957;52.060;5.138;2023-01-01T01:24:49;100774.31;;;15.80;63.43
56082;BME280;41957;52.060;5.138;2023-01-01T01:27:14;100787.59;;;15.79;63.47
56082;BME280;41957;52.060;5.138;2023-01-01T01:29:39;100781.31;;;15.81;63.53
56082;BME280;41957;52.060;5.138;2023-01-01T01:32:05;100791.06;;;15.81;63.47
56082;BME280;41957;52.060;5.138;2023-01-01T01:34:30;100800.81;;;15.80;63.30
56082;BME280;41957;52.060;5.138;2023-01-01T01:36:56;100780.53;;;15.79;63.66
56082;BME280;41957;52.060;5.138;2023-01-01T01:39:21;100807.84;;;15.81;63.84
56082;BME280;41957;52.060;5.138;2023-01-01T01:41:46;100782.44;;;15.76;62.37
56082;BME280;41957;52.060;5.138;2023-01-01T01:49:41;100798.53;;;15.71;61.81
56082;BME280;41957;52.060;5.138;2023-01-01T01:52:08;100792.41;;;15.69;62.09
56082;BME280;41957;52.060;5.138;2023-01-01T01:54:33;100795.91;;;15.70;61.86
56082;BME280;41957;52.060;5.138;2023-01-01T01:57:01;100806.34;;;15.74;62.85
56082;BME280;41957;52.060;5.138;2023-01-01T01:59:31;100806.34;;;15.74;62.58
56082;BME280;41957;52.060;5.138;2023-01-01T02:01:58;100815.25;;;15.73;63.07
56082;BME280;41957;52.060;5.138;2023-01-01T02:04:24;100820.47;;;15.75;62.69
56082;BME280;41957;52.060;5.138;2023-01-01T02:06:50;100816.97;;;15.74;62.01
56082;BME280;41957;52.060;5.138;2023-01-01T02:09:17;100830.34;;;15.71;62.17
56082;BME280;41957;52.060;5.138;2023-01-01T02:11:42;100818.91;;;15.69;61.94
56082;BME280;41957;52.060;5.138;2023-01-01T02:14:08;100827.81;;;15.68;61.75
56082;BME280;41957;52.060;5.138;2023-01-01T02:19:20;100827.03;;;15.65;61.74
56082;BME280;41957;52.060;5.138;2023-01-01T02:22:13;100838.41;;;15.68;62.09
56082;BME280;41957;52.060;5.138;2023-01-01T02:27:44;100840.84;;;15.73;62.68
56082;BME280;41957;52.060;5.138;2023-01-01T02:30:07;100845.31;;;15.72;62.54
56082;BME280;41957;52.060;5.138;2023-01-01T02:32:40;100851.41;;;15.74;62.73
56082;BME280;41957;52.060;5.138;2023-01-01T02:35:17;100846.16;;;15.73;63.02
56082;BME280;41957;52.060;5.138;2023-01-01T02:38:03;100848.75;;;15.74;63.07
56082;BME280;41957;52.060;5.138;2023-01-01T02:40:30;100846.13;;;15.74;62.71
56082;BME280;41957;52.060;5.138;2023-01-01T02:42:56;100842.72;;;15.71;62.44
56082;BME280;41957;52.060;5.138;2023-01-01T02:45:21;100835.63;;;15.71;62.53
56082;BME280;41957;52.060;5.138;2023-01-01T02:47:47;100846.97;;;15.75;63.07
56082;BME280;41957;52.060;5.138;2023-01-01T02:50:24;100849.69;;;15.73;62.65
56082;BME280;41957;52.060;5.138;2023-01-01T02:53:07;100857.66;;;15.73;63.01
56082;BME280;41957;52.060;5.138;2023-01-01T02:55:59;100853.22;;;15.74;62.78
56082;BME280;41957;52.060;5.138;2023-01-01T02:58:45;100837.31;;;15.74;63.14
56082;BME280;41957;52.060;5.138;2023-01-01T03:01:36;100842.66;;;15.72;62.81
56082;BME280;41957;52.060;5.138;2023-01-01T03:04:30;100864.81;;;15.70;62.64
56082;BME280;41957;52.060;5.138;2023-01-01T03:07:04;100869.28;;;15.69;62.71
56082;BME280;41957;52.060;5.138;2023-01-01T03:12:24;100872.66;;;15.73;63.18
56082;BME280;41957;52.060;5.138;2023-01-01T03:15:08;100871.16;;;15.66;61.63
56082;BME280;41957;52.060;5.138;2023-01-01T03:17:40;100864.28;;;15.60;61.52
56082;BME280;41957;52.060;5.138;2023-01-01T03:20:15;100877.53;;;15.60;61.27
56082;BME280;41957;52.060;5.138;2023-01-01T03:22:42;100869.53;;;15.62;60.93
56082;BME280;41957;52.060;5.138;2023-01-01T03:25:14;100875.81;;;15.59;61.37
56082;BME280;41957;52.060;5.138;2023-01-01T03:27:43;100883.75;;;15.59;61.49
56082;BME280;41957;52.060;5.138;2023-01-01T03:30:12;100886.22;;;15.64;62.08
56082;BME280;41957;52.060;5.138;2023-01-01T03:32:51;100887.91;;;15.66;62.04
56082;BME280;41957;52.060;5.138;2023-01-01T03:35:26;100894.94;;;15.67;62.35
56082;BME280;41957;52.060;5.138;2023-01-01T03:37:57;100911.66;;;15.69;62.27
56082;BME280;41957;52.060;5.138;2023-01-01T03:40:25;100915.19;;;15.70;62.39
56082;BME280;41957;52.060;5.138;2023-01-01T03:42:56;100903.78;;;15.68;62.19
56082;BME280;41957;52.060;5.138;2023-01-01T03:45:36;100921.47;;;15.67;62.27
56082;BME280;41957;52.060;5.138;2023-01-01T03:48:03;100940.91;;;15.66;62.17
56082;BME280;41957;52.060;5.138;2023-01-01T03:50:43;100947.06;;;15.67;62.43
56082;BME280;41957;52.060;5.138;2023-01-01T03:53:21;100946.13;;;15.69;62.31
56082;BME280;41957;52.060;5.138;2023-01-01T03:56:06;100949.72;;;15.68;62.72
56082;BME280;41957;52.060;5.138;2023-01-01T03:58:41;100953.25;;;15.67;62.61
56082;BME280;41957;52.060;5.138;2023-01-01T04:01:34;100968.25;;;15.68;62.64
56082;BME280;41957;52.060;5.138;2023-01-01T04:04:04;100963.91;;;15.66;62.48
56082;BME280;41957;52.060;5.138;2023-01-01T04:06:34;100991.38;;;15.63;62.68
56082;BME280;41957;52.060;5.138;2023-01-01T04:09:00;100994.03;;;15.63;62.62
56082;BME280;41957;52.060;5.138;2023-01-01T04:11:29;100975.44;;;15.65;62.64
56082;BME280;41957;52.060;5.138;2023-01-01T04:14:37;100970.91;;;15.68;62.42
56082;BME280;41957;52.060;5.138;2023-01-01T04:17:05;100963.84;;;15.67;62.46
56082;BME280;41957;52.060;5.138;2023-01-01T04:19:31;100985.97;;;15.66;62.70
56082;BME280;41957;52.060;5.138;2023-01-01T04:21:58;100983.31;;;15.66;62.57
56082;BME280;41957;52.060;5.138;2023-01-01T04:24:23;100959.44;;;15.68;62.70
56082;BME280;41957;52.060;5.138;2023-01-01T04:26:50;100960.38;;;15.65;62.96
56082;BME280;41957;52.060;5.138;2023-01-01T04:29:16;100970.06;;;15.66;63.08
56082;BME280;41957;52.060;5.138;2023-01-01T04:31:42;100967.41;;;15.66;62.76
56082;BME280;41957;52.060;5.138;2023-01-01T04:34:07;100965.69;;;15.65;63.09
56082;BME280;41957;52.060;5.138;2023-01-01T04:36:33;100971.84;;;15.66;63.08
56082;BME280;41957;52.060;5.138;2023-01-01T04:38:59;100982.72;;;15.58;63.29
56082;BME280;41957;52.060;5.138;2023-01-01T04:41:24;100995.06;;;15.59;63.35
56082;BME280;41957;52.060;5.138;2023-01-01T04:43:50;101011.75;;;15.61;63.06
56082;BME280;41957;52.060;5.138;2023-01-01T04:46:16;101017.88;;;15.63;63.04
56082;BME280;41957;52.060;5.138;2023-01-01T04:48:42;101009.91;;;15.63;63.28
56082;BME280;41957;52.060;5.138;2023-01-01T04:51:08;101019.59;;;15.64;62.95
56082;BME280;41957;52.060;5.138;2023-01-01T04:53:34;101029.28;;;15.65;63.31
56082;BME280;41957;52.060;5.138;2023-01-01T04:56:07;101024.97;;;15.63;63.22
56082;BME280;41957;52.060;5.138;2023-01-01T04:58:33;101020.41;;;15.66;63.29
56082;BME280;41957;52.060;5.138;2023-01-01T05:00:59;101015.19;;;15.65;63.16
56082;BME280;41957;52.060;5.138;2023-01-01T05:03:24;101022.25;;;15.64;62.93
56082;BME280;41957;52.060;5.138;2023-01-01T05:06:00;101023.28;;;15.60;63.28
56082;BME280;41957;52.060;5.138;2023-01-01T05:08:27;101029.41;;;15.62;63.51
56082;BME280;41957;52.060;5.138;2023-01-01T05:11:01;101033.84;;;15.62;63.06
56082;BME280;41957;52.060;5.138;2023-01-01T05:13:27;101047.13;;;15.60;63.30
56082;BME280;41957;52.060;5.138;2023-01-01T05:15:53;101044.53;;;15.58;63.50
56082;BME280;41957;52.060;5.138;2023-01-01T05:18:18;101052.44;;;15.60;63.38
56082;BME280;41957;52.060;5.138;2023-01-01T05:20:44;101049.78;;;15.60;63.54
56082;BME280;41957;52.060;5.138;2023-01-01T05:23:09;101056.69;;;15.64;63.15
56082;BME280;41957;52.060;5.138;2023-01-01T05:25:34;101045.19;;;15.65;63.29
56082;BME280;41957;52.060;5.138;2023-01-01T05:28:00;101046.09;;;15.64;63.40
56082;BME280;41957;52.060;5.138;2023-01-01T05:30:26;101060.38;;;15.60;63.13
56082;BME280;41957;52.060;5.138;2023-01-01T05:32:51;101070.03;;;15.61;63.41
56082;BME280;41957;52.060;5.138;2023-01-01T05:35:17;101074.44;;;15.62;63.18
56082;BME280;41957;52.060;5.138;2023-01-01T05:37:42;101069.19;;;15.60;63.08
56082;BME280;41957;52.060;5.138;2023-01-01T05:40:08;101088.66;;;15.59;63.07
56082;BME280;41957;52.060;5.138;2023-01-01T05:42:34;101085.09;;;15.60;63.09
56082;BME280;41957;52.060;5.138;2023-01-01T05:45:00;101083.47;;;15.56;63.06
56082;BME280;41957;52.060;5.138;2023-01-01T05:47:26;101081.84;;;15.52;62.93
56082;BME280;41957;52.060;5.138;2023-01-01T05:49:52;101088.66;;;15.59;63.00
56082;BME280;41957;52.060;5.138;2023-01-01T05:52:17;101094.00;;;15.58;63.32
56082;BME280;41957;52.060;5.138;2023-01-01T05:54:42;101093.09;;;15.59;63.03
56082;BME280;41957;52.060;5.138;2023-01-01T05:57:08;101092.44;;;15.52;61.51
56082;BME280;41957;52.060;5.138;2023-01-01T05:59:33;101104.25;;;15.42;61.63
56082;BME280;41957;52.060;5.138;2023-01-01T06:01:58;101099.03;;;15.41;61.70
56082;BME280;41957;52.060;5.138;2023-01-01T06:04:24;101113.16;;;15.40;61.27
56082;BME280;41957;52.060;5.138;2023-01-01T06:06:49;101119.47;;;15.37;61.15
56082;BME280;41957;52.060;5.138;2023-01-01T06:09:14;101128.19;;;15.39;61.66
56082;BME280;41957;52.060;5.138;2023-01-01T06:11:39;101131.72;;;15.40;62.01
56082;BME280;41957;52.060;5.138;2023-01-01T06:14:05;101124.38;;;15.48;62.36
56082;BME280;41957;52.060;5.138;2023-01-01T06:16:30;101126.06;;;15.50;62.30
56082;BME280;41957;52.060;5.138;2023-01-01T06:18:56;101143.59;;;15.54;62.18
56082;BME280;41957;52.060;5.138;2023-01-01T06:21:23;101155.13;;;15.53;62.37
56082;BME280;41957;52.060;5.138;2023-01-01T06:23:49;101157.00;;;15.50;61.98
56082;BME280;41957;52.060;5.138;2023-01-01T06:26:17;101145.69;;;15.45;62.03
56082;BME280;41957;52.060;5.138;2023-01-01T06:28:44;101151.81;;;15.47;61.98
56082;BME280;41957;52.060;5.138;2023-01-01T06:31:11;101155.22;;;15.50;62.20
56082;BME280;41957;52.060;5.138;2023-01-01T06:33:37;101147.19;;;15.52;62.16
56082;BME280;41957;52.060;5.138;2023-01-01T06:36:05;101157.13;;;15.45;61.86
56082;BME280;41957;52.060;5.138;2023-01-01T06:38:31;101167.75;;;15.45;61.86
56082;BME280;41957;52.060;5.138;2023-01-01T06:40:58;101176.25;;;15.55;61.79
56082;BME280;41957;52.060;5.138;2023-01-01T06:43:25;101164.03;;;15.51;61.56
56082;BME280;41957;52.060;5.138;2023-01-01T06:46:05;101175.44;;;15.53;62.04
56082;BME280;41957;52.060;5.138;2023-01-01T06:48:33;101180.78;;;15.51;61.86
56082;BME280;41957;52.060;5.138;2023-01-01T06:51:08;101174.81;;;15.45;61.77
56082;BME280;41957;52.060;5.138;2023-01-01T06:53:34;101192.41;;;15.47;61.56
56082;BME280;41957;52.060;5.138;2023-01-01T06:55:59;101197.75;;;15.46;61.96
56082;BME280;41957;52.060;5.138;2023-01-01T06:58:25;101180.78;;;15.51;61.70
56082;BME280;41957;52.060;5.138;2023-01-01T07:00:50;101186.94;;;15.52;61.94
56082;BME280;41957;52.060;5.138;2023-01-01T07:03:15;101197.66;;;15.49;61.34
56082;BME280;41957;52.060;5.138;2023-01-01T07:05:41;101197.75;;;15.46;61.39
56082;BME280;41957;52.060;5.138;2023-01-01T07:08:06;101211.00;;;15.46;61.43
56082;BME280;41957;52.060;5.138;2023-01-01T07:10:31;101205.59;;;15.49;61.53
56082;BME280;41957;52.060;5.138;2023-01-01T07:12:57;101214.56;;;15.45;61.60
56082;BME280;41957;52.060;5.138;2023-01-01T07:15:22;101229.63;;;15.43;61.02
56082;BME280;41957;52.060;5.138;2023-01-01T07:17:47;101239.38;;;15.42;61.92
56082;BME280;41957;52.060;5.138;2023-01-01T07:20:13;101241.03;;;15.46;61.46
56082;BME280;41957;52.060;5.138;2023-01-01T07:22:39;101250.81;;;15.43;61.71
56082;BME280;41957;52.060;5.138;2023-01-01T07:25:05;101257.97;;;15.41;61.38
56082;BME280;41957;52.060;5.138;2023-01-01T07:27:31;101245.53;;;15.43;61.52
56082;BME280;41957;52.060;5.138;2023-01-01T07:29:56;101250.81;;;15.43;61.37
56082;BME280;41957;52.060;5.138;2023-01-01T07:32:22;101267.38;;;15.51;61.41
56082;BME280;41957;52.060;5.138;2023-01-01T07:34:47;101279.00;;;15.45;61.01
56082;BME280;41957;52.060;5.138;2023-01-01T07:37:12;101293.13;;;15.46;61.28
56082;BME280;41957;52.060;5.138;2023-01-01T07:39:38;101282.72;;;15.40;61.12
56082;BME280;41957;52.060;5.138;2023-01-01T07:42:03;101310.09;;;15.40;61.72
56082;BME280;41957;52.060;5.138;2023-01-01T07:44:28;101304.81;;;15.40;61.43
56082;BME280;41957;52.060;5.138;2023-01-01T07:47:04;101309.19;;;15.40;61.52
56082;BME280;41957;52.060;5.138;2023-01-01T07:49:30;101312.59;;;15.45;61.58
56082;BME280;41957;52.060;5.138;2023-01-01T07:51:55;101314.22;;;15.49;61.34
56082;BME280;41957;52.060;5.138;2023-01-01T07:54:21;101323.19;;;15.45;61.44
56082;BME280;41957;52.060;5.138;2023-01-01T07:56:46;101321.47;;;15.44;61.62
56082;BME280;41957;52.060;5.138;2023-01-01T07:59:11;101336.44;;;15.45;61.51
56082;BME280;41957;52.060;5.138;2023-01-01T08:01:37;101351.59;;;15.40;60.97
56082;BME280;41957;52.060;5.138;2023-01-01T08:04:03;101348.91;;;15.41;61.49
56082;BME280;41957;52.060;5.138;2023-01-01T08:06:28;101363.25;;;15.64;61.00
56082;BME280;41957;52.060;5.138;2023-01-01T08:08:54;101366.56;;;15.73;59.99
56082;BME280;41957;52.060;5.138;2023-01-01T08:11:19;101358.53;;;15.75;60.12
56082;BME280;41957;52.060;5.138;2023-01-01T08:13:44;101369.97;;;15.77;59.73
56082;BME280;41957;52.060;5.138;2023-01-01T08:16:10;101366.50;;;15.75;59.50
56082;BME280;41957;52.060;5.138;2023-01-01T08:18:35;101388.53;;;15.77;59.64
56082;BME280;41957;52.060;5.138;2023-01-01T08:21:01;101384.19;;;15.74;59.75
56082;BME280;41957;52.060;5.138;2023-01-01T08:23:27;101389.50;;;15.73;59.07
56082;BME280;41957;52.060;5.138;2023-01-01T08:25:53;101386.66;;;15.80;59.52
56082;BME280;41957;52.060;5.138;2023-01-01T08:28:21;101395.66;;;16.03;58.77
56082;BME280;41957;52.060;5.138;2023-01-01T08:30:47;101383.81;;;16.15;58.49
56082;BME280;41957;52.060;5.138;2023-01-01T08:33:12;101391.44;;;16.25;57.73
56082;BME280;41957;52.060;5.138;2023-01-01T08:35:40;101389.59;;;16.27;57.92
56082;BME280;41957;52.060;5.138;2023-01-01T08:38:06;101383.28;;;16.32;58.16
56082;BME280;41957;52.060;5.138;2023-01-01T08:40:31;101387.66;;;16.33;58.21
56082;BME280;41957;52.060;5.138;2023-01-01T08:42:56;101385.94;;;16.32;58.14
56082;BME280;41957;52.060;5.138;2023-01-01T08:45:22;101384.19;;;16.31;58.12
56082;BME280;41957;52.060;5.138;2023-01-01T08:47:47;101382.34;;;16.33;58.14
56082;BME280;41957;52.060;5.138;2023-01-01T08:50:12;101397.97;;;16.42;57.76
56082;BME280;41957;52.060;5.138;2023-01-01T08:52:37;101385.25;;;16.51;56.94
56082;BME280;41957;52.060;5.138;2023-01-01T08:55:03;101393.97;;;16.55;56.93
56082;BME280;41957;52.060;5.138;2023-01-01T08:57:29;101408.09;;;16.57;57.52
56082;BME280;41957;52.060;5.138;2023-01-01T08:59:55;101414.22;;;16.59;57.17
56082;BME280;41957;52.060;5.138;2023-01-01T09:02:20;101411.66;;;16.56;57.45
56082;BME280;41957;52.060;5.138;2023-01-01T09:04:46;101412.56;;;16.55;57.39
56082;BME280;41957;52.060;5.138;2023-01-01T09:07:11;101409.16;;;16.51;57.21
56082;BME280;41957;52.060;5.138;2023-01-01T09:09:36;101415.41;;;16.49;57.79
56082;BME280;41957;52.060;5.138;2023-01-01T09:12:02;101415.41;;;16.49;57.76
56082;BME280;41957;52.060;5.138;2023-01-01T09:14:31;101421.72;;;16.46;58.03
56082;BME280;41957;52.060;5.138;2023-01-01T09:16:56;101421.75;;;16.45;57.70
56082;BME280;41957;52.060;5.138;2023-01-01T09:19:21;101425.44;;;16.41;57.14
56082;BME280;41957;52.060;5.138;2023-01-01T09:21:47;101428.19;;;16.38;57.42
56082;BME280;41957;52.060;5.138;2023-01-01T09:24:12;101426.53;;;16.34;57.59
56082;BME280;41957;52.060;5.138;2023-01-01T09:26:37;101420.38;;;16.33;57.80
56082;BME280;41957;52.060;5.138;2023-01-01T09:29:03;101435.31;;;16.36;57.80
56082;BME280;41957;52.060;5.138;2023-01-01T09:31:28;101438.59;;;16.44;57.80
56082;BME280;41957;52.060;5.138;2023-01-01T09:33:53;101436.75;;;16.46;57.49
56082;BME280;41957;52.060;5.138;2023-01-01T09:38:48;101430.19;;;16.58;57.29
56082;BME280;41957;52.060;5.138;2023-01-01T09:46:27;101421.47;;;16.54;57.73
56082;BME280;41957;52.060;5.138;2023-01-01T09:49:00;101438.31;;;16.53;57.72
56082;BME280;41957;52.060;5.138;2023-01-01T09:51:29;101436.66;;;16.49;57.44
56082;BME280;41957;52.060;5.138;2023-01-01T09:54:27;101443.84;;;16.45;57.36
56082;BME280;41957;52.060;5.138;2023-01-01T09:56:56;101455.31;;;16.46;57.62
56082;BME280;41957;52.060;5.138;2023-01-01T09:59:24;101457.31;;;16.39;57.49
56082;BME280;41957;52.060;5.138;2023-01-01T10:02:01;101461.72;;;16.40;57.75
56082;BME280;41957;52.060;5.138;2023-01-01T10:12:52;101473.50;;;16.32;57.53
56082;BME280;41957;52.060;5.138;2023-01-01T10:15:25;101481.63;;;16.25;57.57
56082;BME280;41957;52.060;5.138;2023-01-01T10:17:57;101479.78;;;16.27;57.54
56082;BME280;41957;52.060;5.138;2023-01-01T10:20:48;101464.72;;;16.28;57.39
56082;BME280;41957;52.060;5.138;2023-01-01T10:23:21;101460.59;;;16.19;58.55
56082;BME280;41957;52.060;5.138;2023-01-01T10:25:48;101452.69;;;16.18;58.59
56082;BME280;41957;52.060;5.138;2023-01-01T10:28:24;101450.97;;;16.17;58.49
56082;BME280;41957;52.060;5.138;2023-01-01T10:31:00;101448.13;;;16.21;58.00
56082;BME280;41957;52.060;5.138;2023-01-01T10:33:34;101423.59;;;16.15;58.69
56082;BME280;41957;52.060;5.138;2023-01-01T10:36:00;101443.88;;;16.16;58.57
56082;BME280;41957;52.060;5.138;2023-01-01T10:38:25;101433.53;;;16.08;58.78
56082;BME280;41957;52.060;5.138;2023-01-01T10:40:52;101426.50;;;16.07;59.07
56082;BME280;41957;52.060;5.138;2023-01-01T10:43:20;101432.69;;;16.06;58.97
56082;BME280;41957;52.060;5.138;2023-01-01T10:45:53;101425.75;;;16.02;59.22
56082;BME280;41957;52.060;5.138;2023-01-01T10:48:23;101437.81;;;16.12;58.34
56082;BME280;41957;52.060;5.138;2023-01-01T10:51:13;101456.72;;;16.01;59.23
56082;BME280;41957;52.060;5.138;2023-01-01T10:53:49;101464.03;;;15.93;59.60
56082;BME280;41957;52.060;5.138;2023-01-01T10:56:18;101468.38;;;15.96;59.33
56082;BME280;41957;52.060;5.138;2023-01-01T11:04:00;101491.19;;;16.01;59.01
56082;BME280;41957;52.060;5.138;2023-01-01T11:06:40;101492.91;;;16.04;58.89
56082;BME280;41957;52.060;5.138;2023-01-01T11:09:29;101486.66;;;16.05;58.95
56082;BME280;41957;52.060;5.138;2023-01-01T11:12:01;101487.69;;;16.01;59.58
56082;BME280;41957;52.060;5.138;2023-01-01T11:14:30;101490.47;;;15.96;59.45
56082;BME280;41957;52.060;5.138;2023-01-01T11:16:58;101494.72;;;16.02;59.15
56082;BME280;41957;52.060;5.138;2023-01-01T11:19:28;101500.13;;;15.97;59.40
56082;BME280;41957;52.060;5.138;2023-01-01T11:21:54;101493.97;;;15.97;59.68
56082;BME280;41957;52.060;5.138;2023-01-01T11:24:28;101494.91;;;15.96;59.81
56082;BME280;41957;52.060;5.138;2023-01-01T11:29:36;101507.31;;;15.94;59.68
56082;BME280;41957;52.060;5.138;2023-01-01T11:32:05;101492.34;;;15.93;60.07
56082;BME280;41957;52.060;5.138;2023-01-01T11:34:36;101495.00;;;15.93;59.80
56082;BME280;41957;52.060;5.138;2023-01-01T11:37:26;101500.31;;;15.91;59.87
56082;BME280;41957;52.060;5.138;2023-01-01T11:39:54;101489.69;;;15.93;59.98
56082;BME280;41957;52.060;5.138;2023-01-01T11:42:32;101485.34;;;15.90;60.03
56082;BME280;41957;52.060;5.138;2023-01-01T11:45:08;101482.56;;;15.95;59.90
56082;BME280;41957;52.060;5.138;2023-01-01T11:47:41;101490.81;;;15.84;60.38
56082;BME280;41957;52.060;5.138;2023-01-01T11:52:41;101493.44;;;15.86;60.45
56082;BME280;41957;52.060;5.138;2023-01-01T11:58:00;101491.50;;;15.91;60.26
56082;BME280;41957;52.060;5.138;2023-01-01T12:00:30;101497.72;;;15.90;60.23
56082;BME280;41957;52.060;5.138;2023-01-01T12:03:00;101495.91;;;15.92;60.37
56082;BME280;41957;52.060;5.138;2023-01-01T12:05:49;101496.88;;;15.88;60.22
56082;BME280;41957;52.060;5.138;2023-01-01T12:08:24;101504.13;;;15.82;60.46
56082;BME280;41957;52.060;5.138;2023-01-01T12:10:59;101508.44;;;15.85;60.44
56082;BME280;41957;52.060;5.138;2023-01-01T12:13:29;101505.84;;;15.83;60.66
56082;BME280;41957;52.060;5.138;2023-01-01T12:18:44;101505.84;;;15.83;60.73
56082;BME280;41957;52.060;5.138;2023-01-01T12:21:21;101497.03;;;15.83;60.55
56082;BME280;41957;52.060;5.138;2023-01-01T12:23:49;101501.50;;;15.81;60.78
56082;BME280;41957;52.060;5.138;2023-01-01T12:26:24;101501.59;;;15.78;61.18
56082;BME280;41957;52.060;5.138;2023-01-01T12:29:28;101508.59;;;15.80;60.93
56082;BME280;41957;52.060;5.138;2023-01-01T12:32:08;101504.22;;;15.79;61.02
56082;BME280;41957;52.060;5.138;2023-01-01T12:34:50;101498.03;;;15.79;61.13
56082;BME280;41957;52.060;5.138;2023-01-01T12:57:00;101494.97;;;17.83;56.20
56082;BME280;41957;52.060;5.138;2023-01-01T12:59:33;101504.59;;;18.33;55.03
56082;BME280;41957;52.060;5.138;2023-01-01T13:02:01;101501.06;;;18.78;53.94
56082;BME280;41957;52.060;5.138;2023-01-01T13:04:27;101496.78;;;19.16;52.80
56082;BME280;41957;52.060;5.138;2023-01-01T13:07:00;101507.72;;;19.51;51.83
56082;BME280;41957;52.060;5.138;2023-01-01T13:09:33;101495.84;;;19.79;51.28
56082;BME280;41957;52.060;5.138;2023-01-01T13:14:28;101486.84;;;20.19;50.23
56082;BME280;41957;52.060;5.138;2023-01-01T13:16:54;101494.06;;;20.17;50.54
56082;BME280;41957;52.060;5.138;2023-01-01T13:19:24;101494.44;;;19.90;51.67
56082;BME280;41957;52.060;5.138;2023-01-01T13:21:50;101496.34;;;18.85;53.88
56082;BME280;41957;52.060;5.138;2023-01-01T13:24:26;101502.94;;;18.29;55.66
56082;BME280;41957;52.060;5.138;2023-01-01T13:26:52;101505.31;;;18.15;56.60
56082;BME280;41957;52.060;5.138;2023-01-01T13:37:26;101484.47;;;18.02;57.17
56082;BME280;41957;52.060;5.138;2023-01-01T13:40:27;101493.13;;;18.07;57.29
56082;BME280;41957;52.060;5.138;2023-01-01T13:45:51;101498.03;;;17.96;56.96
56082;BME280;41957;52.060;5.138;2023-01-01T13:51:13;101495.47;;;17.93;57.48
56082;BME280;41957;52.060;5.138;2023-01-01T13:54:51;101501.81;;;17.89;57.61
56082;BME280;41957;52.060;5.138;2023-01-01T13:56:59;101503.72;;;17.85;57.56
56082;BME280;41957;52.060;5.138;2023-01-01T14:08:31;101507.97;;;17.66;57.94
56082;BME280;41957;52.060;5.138;2023-01-01T14:10:58;101499.34;;;17.59;57.91
56082;BME280;41957;52.060;5.138;2023-01-01T14:13:28;101498.75;;;17.51;58.27
56082;BME280;41957;52.060;5.138;2023-01-01T14:15:56;101507.16;;;17.39;58.66
56082;BME280;41957;52.060;5.138;2023-01-01T14:18:52;101501.22;;;17.31;59.00
56082;BME280;41957;52.060;5.138;2023-01-01T14:21:21;101500.53;;;17.26;58.50
56082;BME280;41957;52.060;5.138;2023-01-01T14:23:50;101490.69;;;17.28;59.05
56082;BME280;41957;52.060;5.138;2023-01-01T14:26:21;101494.31;;;17.25;58.30
56082;BME280;41957;52.060;5.138;2023-01-01T14:28:47;101492.59;;;17.24;58.70
56082;BME280;41957;52.060;5.138;2023-01-01T14:31:17;101491.78;;;17.22;59.06
56082;BME280;41957;52.060;5.138;2023-01-01T14:33:43;101501.75;;;17.15;59.07